createdAt,value
2022-11-21T00:00:10.909Z,55.53
2022-11-21T00:05:12.677Z,56.08
2022-11-21T00:10:14.547Z,58.70
2022-11-21T00:15:16.178Z,57.30
2022-11-21T00:20:19.434Z,65.80
2022-11-21T00:25:21.115Z,66.43
2022-11-21T00:30:22.858Z,74.40
2022-11-21T00:35:24.847Z,70.32
2022-11-21T00:40:26.535Z,77.15
2022-11-21T00:45:28.892Z,88.03
2022-11-21T00:50:30.644Z,81.63
2022-11-21T00:55:32.299Z,82.45
2022-11-21T01:00:34.098Z,79.28
2022-11-21T01:05:36.066Z,83.22
2022-11-21T01:10:37.741Z,81.07
2022-11-21T01:15:39.546Z,82.15
2022-11-21T01:20:41.266Z,91.47
2022-11-21T01:25:43.007Z,79.95
2022-11-21T01:30:44.713Z,87.63
2022-11-21T01:35:46.408Z,79.03
2022-11-21T01:40:48.068Z,83.28
2022-11-21T01:46:00.016Z,80.72
2022-11-21T01:51:18.589Z,81.55
2022-11-21T01:56:21.900Z,80.93
2022-11-21T02:01:23.929Z,78.35
2022-11-21T02:06:25.845Z,72.30
2022-11-21T02:11:36.434Z,81.38
2022-11-21T02:16:38.803Z,79.45
2022-11-21T02:21:53.297Z,79.85
2022-11-21T02:26:55.193Z,65.25
2022-11-21T02:32:02.920Z,70.88
2022-11-21T02:37:04.563Z,70.63
2022-11-21T02:42:23.911Z,66.95
2022-11-21T02:47:26.199Z,73.32
2022-11-21T02:52:27.822Z,63.97
2022-11-21T02:57:29.530Z,74.90
2022-11-21T03:02:31.185Z,70.07
2022-11-21T03:07:33.031Z,72.53
2022-11-21T03:12:42.196Z,72.82
2022-11-21T03:17:43.879Z,61.85
2022-11-21T03:22:45.543Z,70.15
2022-11-21T03:27:50.904Z,71.25
2022-11-21T03:32:55.941Z,70.85
2022-11-21T03:37:57.714Z,72.20
2022-11-21T03:43:04.764Z,58.78
2022-11-21T03:48:06.687Z,77.35
2022-11-21T03:53:08.374Z,68.88
2022-11-21T03:58:10.003Z,66.55
2022-11-21T04:03:11.692Z,63.88
2022-11-21T04:08:13.319Z,70.78
2022-11-21T04:13:15.348Z,66.68
2022-11-21T04:18:17.152Z,70.38
2022-11-21T04:23:19.409Z,60.53
2022-11-21T04:28:21.677Z,61.80
2022-11-21T04:33:23.287Z,56.97
2022-11-21T04:38:25.168Z,72.88
2022-11-21T04:43:26.845Z,64.85
2022-11-21T04:48:28.547Z,66.32
2022-11-21T04:53:30.158Z,67.07
2022-11-21T04:58:32.084Z,66.95
2022-11-21T05:03:33.870Z,66.40
2022-11-21T05:08:35.645Z,70.80
2022-11-21T05:13:37.236Z,54.95
2022-11-21T05:18:38.912Z,66.57
2022-11-21T05:23:40.700Z,56.35
2022-11-21T05:28:42.499Z,63.28
2022-11-21T05:33:44.235Z,62.28
2022-11-21T05:38:46.000Z,59.95
2022-11-21T05:43:47.757Z,60.38
2022-11-21T05:48:50.224Z,54.30
2022-11-21T05:53:51.875Z,63.42
2022-11-21T05:58:58.337Z,56.97
2022-11-21T06:04:01.797Z,67.87
2022-11-21T06:09:04.886Z,70.22
2022-11-21T06:14:06.621Z,75.68
2022-11-21T06:19:08.354Z,56.78
2022-11-21T06:24:10.134Z,57.47
2022-11-21T06:29:12.215Z,60.55
2022-11-21T06:34:15.501Z,77.35
2022-11-21T06:39:17.336Z,66.28
2022-11-21T06:44:20.250Z,59.75
2022-11-21T06:49:24.856Z,57.50
2022-11-21T06:54:26.807Z,23.80
2022-11-21T06:59:28.497Z,13.30
2022-11-21T07:04:30.345Z,15.90
2022-11-21T07:09:34.315Z,26.95
2022-11-21T07:14:36.032Z,16.80
2022-11-21T07:19:40.864Z,11.98
2022-11-21T07:24:42.768Z,14.55
2022-11-21T07:29:44.603Z,14.18
2022-11-21T07:34:46.168Z,14.38
2022-11-21T07:39:47.972Z,17.05
2022-11-21T07:44:49.565Z,19.40
2022-11-21T07:49:51.240Z,19.52
2022-11-21T07:54:52.880Z,22.60
2022-11-21T07:59:55.077Z,21.40
2022-11-21T08:04:56.724Z,28.77
2022-11-21T08:09:58.433Z,23.42
2022-11-21T08:15:00.034Z,26.55
2022-11-21T08:20:02.015Z,36.60
2022-11-21T08:25:03.870Z,40.33
2022-11-21T08:30:07.381Z,35.47
2022-11-21T08:35:09.285Z,30.08
2022-11-21T08:40:11.340Z,26.20
2022-11-21T08:45:13.042Z,30.17
2022-11-21T08:50:15.221Z,27.70
2022-11-21T08:55:16.982Z,23.52
2022-11-21T09:00:18.832Z,25.15
2022-11-21T09:05:20.583Z,43.83
2022-11-21T09:10:22.239Z,30.27
2022-11-21T09:15:44.490Z,30.40
2022-11-21T09:20:47.343Z,32.53
2022-11-21T09:25:49.080Z,39.17
2022-11-21T09:30:50.714Z,39.40
2022-11-21T09:35:52.307Z,51.28
2022-11-21T09:41:29.621Z,46.80
2022-11-21T09:46:37.611Z,53.15
2022-11-21T09:51:42.683Z,59.30
2022-11-21T09:56:44.634Z,48.95
2022-11-21T10:01:47.196Z,52.20
2022-11-21T10:06:51.830Z,46.15
2022-11-21T10:12:41.476Z,48.38
2022-11-21T10:17:57.914Z,40.50
2022-11-21T10:23:08.577Z,41.40
2022-11-21T10:28:22.655Z,40.20
2022-11-21T10:33:32.601Z,30.15
2022-11-21T10:38:40.165Z,39.42
2022-11-21T10:44:23.382Z,43.83
2022-11-21T10:49:27.917Z,39.58
2022-11-21T10:54:32.787Z,35.13
2022-11-21T10:59:37.059Z,45.08
2022-11-21T11:04:47.377Z,40.58
2022-11-21T11:09:49.335Z,40.50
2022-11-21T11:14:56.756Z,54.50
2022-11-21T11:20:27.078Z,46.08
2022-11-21T11:25:34.915Z,46.85
2022-11-21T11:30:37.843Z,48.65
2022-11-21T11:35:40.429Z,52.40
2022-11-21T11:40:44.875Z,55.90
2022-11-21T11:46:11.042Z,59.53
2022-11-21T11:51:35.242Z,49.50
2022-11-21T11:56:38.618Z,55.42
2022-11-21T12:02:11.677Z,56.70
2022-11-21T12:13:16.350Z,53.22
2022-11-21T12:18:20.904Z,55.47
2022-11-21T12:23:28.342Z,53.33
2022-11-21T12:33:52.231Z,52.05
2022-11-21T12:39:36.233Z,60.10
2022-11-21T12:45:03.414Z,62.97
2022-11-21T12:55:48.002Z,57.35
2022-11-21T13:00:50.195Z,60.83
2022-11-21T13:05:56.056Z,61.08
2022-11-21T13:11:25.354Z,66.20
2022-11-21T13:16:37.424Z,60.78
2022-11-21T13:21:48.249Z,58.42
2022-11-21T13:26:54.039Z,62.78
2022-11-21T13:31:55.677Z,62.60
2022-11-21T13:36:57.654Z,50.72
2022-11-21T13:42:20.557Z,53.67
2022-11-21T13:47:25.713Z,53.70
2022-11-21T13:53:04.519Z,44.92
2022-11-21T13:58:15.499Z,38.80
2022-11-21T14:03:40.249Z,42.78
2022-11-21T14:08:41.971Z,45.10
2022-11-21T14:13:48.958Z,44.33
2022-11-21T14:18:51.144Z,55.85
2022-11-21T14:23:57.377Z,62.75
2022-11-21T14:29:23.854Z,56.47
2022-11-21T14:34:30.781Z,65.93
2022-11-21T14:44:45.152Z,67.50
2022-11-21T14:49:50.898Z,66.35
2022-11-21T15:00:57.911Z,65.05
2022-11-21T15:06:02.158Z,69.85
2022-11-21T15:11:08.852Z,73.80
2022-11-21T15:16:10.955Z,71.32
2022-11-21T15:21:16.263Z,73.80
2022-11-21T15:26:35.626Z,75.40
2022-11-21T15:31:37.307Z,73.28
2022-11-21T15:36:39.000Z,71.05
2022-11-21T15:41:40.652Z,80.18
2022-11-21T15:46:42.453Z,80.65
2022-11-21T15:57:11.229Z,70.97
2022-11-21T16:02:14.386Z,81.45
2022-11-21T16:07:16.288Z,70.75
2022-11-21T16:12:18.052Z,79.35
2022-11-21T16:17:19.713Z,70.18
2022-11-21T16:22:21.370Z,78.28
2022-11-21T16:27:23.065Z,70.15
2022-11-21T16:32:27.986Z,67.50
2022-11-21T16:37:31.905Z,74.20
2022-11-21T16:42:33.530Z,64.32
2022-11-21T16:47:37.149Z,76.88
2022-11-21T16:52:38.795Z,76.20
2022-11-21T16:57:41.119Z,74.18
2022-11-21T17:02:42.793Z,78.53
2022-11-21T17:07:44.840Z,67.38
2022-11-21T17:12:47.156Z,69.45
2022-11-21T17:17:48.932Z,68.93
2022-11-21T17:22:50.629Z,75.90
2022-11-21T17:27:52.260Z,72.00
2022-11-21T17:32:53.957Z,77.25
2022-11-21T17:37:55.556Z,77.28
2022-11-21T17:42:57.204Z,83.97
2022-11-21T17:47:58.885Z,70.30
2022-11-21T17:53:01.865Z,70.63
2022-11-21T17:58:03.682Z,64.00
2022-11-21T18:03:05.333Z,76.70
2022-11-21T18:08:06.919Z,67.00
2022-11-21T18:13:09.441Z,67.32
2022-11-21T18:18:11.579Z,62.30
2022-11-21T18:23:13.338Z,67.57
2022-11-21T18:28:14.967Z,69.35
2022-11-21T18:33:18.946Z,66.43
2022-11-21T18:38:46.844Z,66.72
2022-11-21T18:43:44.755Z,70.28
2022-11-21T18:49:02.066Z,60.60
2022-11-21T18:54:10.459Z,60.00
2022-11-21T18:59:12.246Z,61.05
2022-11-21T19:04:13.948Z,64.88
2022-11-21T19:09:15.686Z,67.82
2022-11-21T19:14:17.337Z,63.10
2022-11-21T19:19:35.547Z,60.03
2022-11-21T19:24:37.514Z,58.78
2022-11-21T19:29:39.926Z,59.28
2022-11-21T19:34:41.662Z,67.28
2022-11-21T19:39:43.297Z,58.95
2022-11-21T19:44:44.971Z,52.47
2022-11-21T19:49:46.573Z,47.55
2022-11-21T19:54:48.292Z,54.58
2022-11-21T19:59:50.243Z,47.03
2022-11-21T20:04:54.165Z,67.35
2022-11-21T20:09:55.819Z,51.10
2022-11-21T20:14:57.496Z,46.88
2022-11-21T20:19:59.944Z,51.08
2022-11-21T20:25:01.593Z,49.33
2022-11-21T20:30:04.589Z,54.83
2022-11-21T20:35:06.386Z,47.00
2022-11-21T20:40:09.498Z,46.63
2022-11-21T20:46:01.315Z,43.13
2022-11-21T20:51:25.183Z,44.20
2022-11-21T20:56:00.357Z,52.55
2022-11-21T21:01:02.340Z,42.25
2022-11-21T21:06:07.279Z,48.90
2022-11-21T21:11:36.895Z,51.17
2022-11-21T21:16:36.260Z,44.60
2022-11-21T21:21:38.050Z,38.50
2022-11-21T21:26:46.119Z,43.10
2022-11-21T21:31:52.637Z,43.38
2022-11-21T21:36:54.527Z,45.00
2022-11-21T21:41:56.175Z,44.97
2022-11-21T21:46:57.961Z,33.63
2022-11-21T21:51:59.582Z,39.90
2022-11-21T21:57:01.770Z,38.65
2022-11-21T22:02:04.367Z,40.70
2022-11-21T22:07:08.696Z,38.63
2022-11-21T22:12:10.494Z,43.58
2022-11-21T22:17:12.068Z,37.35
2022-11-21T22:22:13.960Z,29.85
2022-11-21T22:27:15.618Z,32.17
2022-11-21T22:32:19.884Z,32.28
2022-11-21T22:37:21.763Z,28.85
2022-11-21T22:42:23.404Z,30.77
2022-11-21T22:47:25.013Z,35.75
2022-11-21T22:52:26.654Z,31.42
2022-11-21T22:57:28.363Z,32.92
2022-11-21T23:02:30.024Z,24.50
2022-11-21T23:07:31.995Z,26.95
2022-11-21T23:12:37.179Z,21.00
2022-11-21T23:17:38.863Z,22.33
2022-11-21T23:22:40.438Z,22.40
2022-11-21T23:27:42.070Z,21.92
2022-11-21T23:32:43.775Z,20.63
2022-11-21T23:37:45.448Z,18.27
2022-11-21T23:42:47.152Z,19.35
2022-11-21T23:47:48.832Z,17.63
2022-11-21T23:52:50.788Z,20.45
2022-11-21T23:57:52.371Z,20.15
